sensor_id;sensor_type;location;lat;lon;timestamp;P1;durP1;ratioP1;P2;durP2;ratioP2
5493;SDS011;2769;49.864;8.656;2022-09-20T00:01:32;4.37;;;2.97;;
5493;SDS011;2769;49.864;8.656;2022-09-20T00:04:21;5.03;;;3.27;;
5493;SDS011;2769;49.864;8.656;2022-09-20T00:07:09;7.20;;;2.70;;
5493;SDS011;2769;49.864;8.656;2022-09-20T00:09:58;4.80;;;3.17;;
5493;SDS011;2769;49.864;8.656;2022-09-20T00:12:48;3.40;;;2.73;;
5493;SDS011;2769;49.864;8.656;2022-09-20T00:15:39;5.40;;;2.70;;
5493;SDS011;2769;49.864;8.656;2022-09-20T00:18:28;7.13;;;2.87;;
5493;SDS011;2769;49.864;8.656;2022-09-20T00:21:17;5.17;;;2.70;;
5493;SDS011;2769;49.864;8.656;2022-09-20T00:24:08;5.07;;;3.20;;
5493;SDS011;2769;49.864;8.656;2022-09-20T00:26:57;3.03;;;2.73;;
5493;SDS011;2769;49.864;8.656;2022-09-20T00:29:46;4.53;;;2.90;;
5493;SDS011;2769;49.864;8.656;2022-09-20T00:32:35;4.87;;;2.80;;
5493;SDS011;2769;49.864;8.656;2022-09-20T00:35:23;4.30;;;3.33;;
5493;SDS011;2769;49.864;8.656;2022-09-20T00:38:11;4.17;;;2.80;;
5493;SDS011;2769;49.864;8.656;2022-09-20T00:41:00;7.03;;;3.70;;
5493;SDS011;2769;49.864;8.656;2022-09-20T00:43:48;8.97;;;3.20;;
5493;SDS011;2769;49.864;8.656;2022-09-20T00:46:38;8.90;;;3.60;;
5493;SDS011;2769;49.864;8.656;2022-09-20T00:49:29;5.13;;;3.40;;
5493;SDS011;2769;49.864;8.656;2022-09-20T00:52:20;5.00;;;3.53;;
5493;SDS011;2769;49.864;8.656;2022-09-20T00:55:09;5.90;;;3.20;;
5493;SDS011;2769;49.864;8.656;2022-09-20T00:57:58;5.27;;;3.03;;
5493;SDS011;2769;49.864;8.656;2022-09-20T01:00:47;4.90;;;3.20;;
5493;SDS011;2769;49.864;8.656;2022-09-20T01:03:39;7.20;;;3.10;;
5493;SDS011;2769;49.864;8.656;2022-09-20T01:06:29;4.07;;;3.20;;
5493;SDS011;2769;49.864;8.656;2022-09-20T01:09:19;6.83;;;3.00;;
5493;SDS011;2769;49.864;8.656;2022-09-20T01:12:08;7.70;;;2.93;;
5493;SDS011;2769;49.864;8.656;2022-09-20T01:15:01;9.43;;;3.40;;
5493;SDS011;2769;49.864;8.656;2022-09-20T01:17:51;8.07;;;3.53;;
5493;SDS011;2769;49.864;8.656;2022-09-20T01:20:43;5.20;;;3.60;;
5493;SDS011;2769;49.864;8.656;2022-09-20T01:23:36;5.03;;;3.50;;
5493;SDS011;2769;49.864;8.656;2022-09-20T01:26:36;6.83;;;3.40;;
5493;SDS011;2769;49.864;8.656;2022-09-20T01:29:50;9.13;;;3.90;;
5493;SDS011;2769;49.864;8.656;2022-09-20T01:32:56;8.03;;;3.60;;
5493;SDS011;2769;49.864;8.656;2022-09-20T01:35:54;6.63;;;3.37;;
5493;SDS011;2769;49.864;8.656;2022-09-20T01:38:48;5.30;;;3.90;;
5493;SDS011;2769;49.864;8.656;2022-09-20T01:41:47;5.17;;;3.60;;
5493;SDS011;2769;49.864;8.656;2022-09-20T01:44:44;6.67;;;3.93;;
5493;SDS011;2769;49.864;8.656;2022-09-20T01:47:44;7.80;;;3.83;;
5493;SDS011;2769;49.864;8.656;2022-09-20T01:50:42;7.33;;;3.93;;
5493;SDS011;2769;49.864;8.656;2022-09-20T02:00:31;4.57;;;3.80;;
5493;SDS011;2769;49.864;8.656;2022-09-20T02:03:36;17.53;;;4.10;;
5493;SDS011;2769;49.864;8.656;2022-09-20T02:06:53;15.10;;;4.30;;
5493;SDS011;2769;49.864;8.656;2022-09-20T02:10:19;8.03;;;4.03;;
5493;SDS011;2769;49.864;8.656;2022-09-20T02:13:39;9.57;;;4.43;;
5493;SDS011;2769;49.864;8.656;2022-09-20T02:16:44;14.90;;;4.80;;
5493;SDS011;2769;49.864;8.656;2022-09-20T02:19:49;12.30;;;4.00;;
5493;SDS011;2769;49.864;8.656;2022-09-20T02:22:42;11.73;;;4.50;;
5493;SDS011;2769;49.864;8.656;2022-09-20T02:25:43;16.40;;;4.13;;
5493;SDS011;2769;49.864;8.656;2022-09-20T02:28:50;13.67;;;4.57;;
5493;SDS011;2769;49.864;8.656;2022-09-20T02:31:54;8.37;;;4.10;;
5493;SDS011;2769;49.864;8.656;2022-09-20T02:35:03;12.37;;;4.50;;
5493;SDS011;2769;49.864;8.656;2022-09-20T02:38:08;12.00;;;4.37;;
5493;SDS011;2769;49.864;8.656;2022-09-20T02:44:42;7.17;;;3.57;;
5493;SDS011;2769;49.864;8.656;2022-09-20T02:47:41;9.00;;;4.00;;
5493;SDS011;2769;49.864;8.656;2022-09-20T02:50:32;6.97;;;4.80;;
5493;SDS011;2769;49.864;8.656;2022-09-20T02:53:31;12.53;;;4.90;;
5493;SDS011;2769;49.864;8.656;2022-09-20T02:56:28;13.03;;;5.10;;
5493;SDS011;2769;49.864;8.656;2022-09-20T02:59:24;6.20;;;4.60;;
5493;SDS011;2769;49.864;8.656;2022-09-20T03:02:20;13.80;;;4.53;;
5493;SDS011;2769;49.864;8.656;2022-09-20T03:05:16;10.10;;;4.70;;
5493;SDS011;2769;49.864;8.656;2022-09-20T03:08:19;10.97;;;4.60;;
5493;SDS011;2769;49.864;8.656;2022-09-20T03:11:22;6.70;;;4.53;;
5493;SDS011;2769;49.864;8.656;2022-09-20T03:14:18;15.43;;;4.70;;
5493;SDS011;2769;49.864;8.656;2022-09-20T03:17:14;10.87;;;4.53;;
5493;SDS011;2769;49.864;8.656;2022-09-20T03:20:12;15.10;;;5.20;;
5493;SDS011;2769;49.864;8.656;2022-09-20T03:23:13;10.27;;;5.50;;
5493;SDS011;2769;49.864;8.656;2022-09-20T03:26:14;10.13;;;4.87;;
5493;SDS011;2769;49.864;8.656;2022-09-20T03:29:14;7.80;;;5.30;;
5493;SDS011;2769;49.864;8.656;2022-09-20T03:32:23;8.80;;;4.40;;
5493;SDS011;2769;49.864;8.656;2022-09-20T03:35:27;15.50;;;5.30;;
5493;SDS011;2769;49.864;8.656;2022-09-20T03:38:28;9.73;;;4.50;;
5493;SDS011;2769;49.864;8.656;2022-09-20T03:41:42;12.13;;;4.33;;
5493;SDS011;2769;49.864;8.656;2022-09-20T03:48:12;14.50;;;5.00;;
5493;SDS011;2769;49.864;8.656;2022-09-20T03:51:28;17.53;;;5.27;;
5493;SDS011;2769;49.864;8.656;2022-09-20T03:54:29;12.37;;;4.63;;
5493;SDS011;2769;49.864;8.656;2022-09-20T03:57:49;7.70;;;4.43;;
5493;SDS011;2769;49.864;8.656;2022-09-20T04:00:48;13.20;;;5.10;;
5493;SDS011;2769;49.864;8.656;2022-09-20T04:03:48;15.77;;;4.53;;
5493;SDS011;2769;49.864;8.656;2022-09-20T04:06:45;7.07;;;5.23;;
5493;SDS011;2769;49.864;8.656;2022-09-20T04:09:51;8.10;;;5.17;;
5493;SDS011;2769;49.864;8.656;2022-09-20T04:12:55;12.57;;;5.17;;
5493;SDS011;2769;49.864;8.656;2022-09-20T04:16:00;17.70;;;5.17;;
5493;SDS011;2769;49.864;8.656;2022-09-20T04:19:09;12.33;;;6.00;;
5493;SDS011;2769;49.864;8.656;2022-09-20T04:22:06;8.97;;;5.27;;
5493;SDS011;2769;49.864;8.656;2022-09-20T04:24:55;13.17;;;6.63;;
5493;SDS011;2769;49.864;8.656;2022-09-20T04:27:49;13.50;;;6.07;;
5493;SDS011;2769;49.864;8.656;2022-09-20T04:30:42;11.07;;;5.80;;
5493;SDS011;2769;49.864;8.656;2022-09-20T04:33:33;16.93;;;6.03;;
5493;SDS011;2769;49.864;8.656;2022-09-20T04:36:32;8.40;;;5.57;;
5493;SDS011;2769;49.864;8.656;2022-09-20T04:39:41;10.93;;;5.20;;
5493;SDS011;2769;49.864;8.656;2022-09-20T04:42:47;15.37;;;6.30;;
5493;SDS011;2769;49.864;8.656;2022-09-20T04:49:36;18.40;;;6.17;;
5493;SDS011;2769;49.864;8.656;2022-09-20T04:56:31;16.83;;;6.07;;
5493;SDS011;2769;49.864;8.656;2022-09-20T04:59:39;12.00;;;5.90;;
5493;SDS011;2769;49.864;8.656;2022-09-20T05:02:51;11.53;;;6.40;;
5493;SDS011;2769;49.864;8.656;2022-09-20T05:09:29;10.50;;;6.10;;
5493;SDS011;2769;49.864;8.656;2022-09-20T05:12:59;14.67;;;7.10;;
5493;SDS011;2769;49.864;8.656;2022-09-20T05:16:03;16.20;;;7.40;;
5493;SDS011;2769;49.864;8.656;2022-09-20T05:19:04;12.67;;;6.90;;
5493;SDS011;2769;49.864;8.656;2022-09-20T05:22:14;19.40;;;7.40;;
5493;SDS011;2769;49.864;8.656;2022-09-20T05:25:51;14.73;;;7.40;;
5493;SDS011;2769;49.864;8.656;2022-09-20T05:28:55;12.60;;;6.90;;
5493;SDS011;2769;49.864;8.656;2022-09-20T05:31:50;20.43;;;6.87;;
5493;SDS011;2769;49.864;8.656;2022-09-20T05:34:43;13.37;;;6.70;;
5493;SDS011;2769;49.864;8.656;2022-09-20T05:37:38;13.77;;;6.90;;
5493;SDS011;2769;49.864;8.656;2022-09-20T05:40:37;10.13;;;6.67;;
5493;SDS011;2769;49.864;8.656;2022-09-20T05:43:42;8.43;;;6.63;;
5493;SDS011;2769;49.864;8.656;2022-09-20T05:46:43;9.90;;;6.20;;
5493;SDS011;2769;49.864;8.656;2022-09-20T05:49:44;12.97;;;6.80;;
5493;SDS011;2769;49.864;8.656;2022-09-20T05:52:43;13.60;;;7.30;;
5493;SDS011;2769;49.864;8.656;2022-09-20T05:55:43;10.90;;;6.80;;
5493;SDS011;2769;49.864;8.656;2022-09-20T05:58:43;10.73;;;6.60;;
5493;SDS011;2769;49.864;8.656;2022-09-20T06:01:54;22.40;;;7.10;;
5493;SDS011;2769;49.864;8.656;2022-09-20T06:04:51;12.90;;;7.83;;
5493;SDS011;2769;49.864;8.656;2022-09-20T06:07:53;12.77;;;7.40;;
5493;SDS011;2769;49.864;8.656;2022-09-20T06:10:59;9.83;;;7.07;;
5493;SDS011;2769;49.864;8.656;2022-09-20T06:14:23;14.77;;;7.17;;
5493;SDS011;2769;49.864;8.656;2022-09-20T06:17:23;12.47;;;6.50;;
5493;SDS011;2769;49.864;8.656;2022-09-20T06:20:16;12.00;;;6.27;;
5493;SDS011;2769;49.864;8.656;2022-09-20T06:23:13;11.43;;;6.37;;
5493;SDS011;2769;49.864;8.656;2022-09-20T06:26:01;17.53;;;6.87;;
5493;SDS011;2769;49.864;8.656;2022-09-20T06:28:57;12.10;;;6.43;;
5493;SDS011;2769;49.864;8.656;2022-09-20T06:31:49;21.60;;;6.30;;
5493;SDS011;2769;49.864;8.656;2022-09-20T06:34:41;12.23;;;5.20;;
5493;SDS011;2769;49.864;8.656;2022-09-20T06:37:40;15.10;;;6.67;;
5493;SDS011;2769;49.864;8.656;2022-09-20T06:40:55;13.03;;;6.00;;
5493;SDS011;2769;49.864;8.656;2022-09-20T06:44:01;17.63;;;5.87;;
5493;SDS011;2769;49.864;8.656;2022-09-20T06:46:51;7.80;;;5.23;;
5493;SDS011;2769;49.864;8.656;2022-09-20T06:49:41;8.27;;;5.90;;
5493;SDS011;2769;49.864;8.656;2022-09-20T06:52:30;13.53;;;5.50;;
5493;SDS011;2769;49.864;8.656;2022-09-20T06:55:19;9.20;;;4.80;;
5493;SDS011;2769;49.864;8.656;2022-09-20T06:58:15;14.50;;;5.00;;
5493;SDS011;2769;49.864;8.656;2022-09-20T07:01:03;17.33;;;5.17;;
5493;SDS011;2769;49.864;8.656;2022-09-20T07:03:52;8.90;;;5.33;;
5493;SDS011;2769;49.864;8.656;2022-09-20T07:06:42;11.73;;;5.60;;
5493;SDS011;2769;49.864;8.656;2022-09-20T07:09:30;10.50;;;5.03;;
5493;SDS011;2769;49.864;8.656;2022-09-20T07:12:18;23.90;;;6.43;;
5493;SDS011;2769;49.864;8.656;2022-09-20T07:15:07;9.83;;;5.37;;
5493;SDS011;2769;49.864;8.656;2022-09-20T07:17:56;14.23;;;4.57;;
5493;SDS011;2769;49.864;8.656;2022-09-20T07:20:45;12.40;;;4.70;;
5493;SDS011;2769;49.864;8.656;2022-09-20T07:23:35;13.47;;;4.97;;
5493;SDS011;2769;49.864;8.656;2022-09-20T07:26:24;12.20;;;4.90;;
5493;SDS011;2769;49.864;8.656;2022-09-20T07:29:13;8.67;;;4.70;;
5493;SDS011;2769;49.864;8.656;2022-09-20T07:32:02;12.43;;;4.40;;
5493;SDS011;2769;49.864;8.656;2022-09-20T07:34:50;10.77;;;4.60;;
5493;SDS011;2769;49.864;8.656;2022-09-20T07:37:39;9.13;;;4.40;;
5493;SDS011;2769;49.864;8.656;2022-09-20T07:40:29;10.37;;;4.77;;
5493;SDS011;2769;49.864;8.656;2022-09-20T07:43:17;12.43;;;4.53;;
5493;SDS011;2769;49.864;8.656;2022-09-20T07:46:06;15.10;;;4.63;;
5493;SDS011;2769;49.864;8.656;2022-09-20T07:48:54;15.33;;;4.63;;
5493;SDS011;2769;49.864;8.656;2022-09-20T07:51:42;8.57;;;5.17;;
5493;SDS011;2769;49.864;8.656;2022-09-20T07:54:31;8.07;;;4.30;;
5493;SDS011;2769;49.864;8.656;2022-09-20T07:57:21;8.60;;;4.53;;
5493;SDS011;2769;49.864;8.656;2022-09-20T08:00:10;25.00;;;5.80;;
5493;SDS011;2769;49.864;8.656;2022-09-20T08:02:58;12.10;;;5.50;;
5493;SDS011;2769;49.864;8.656;2022-09-20T08:05:47;14.43;;;5.07;;
5493;SDS011;2769;49.864;8.656;2022-09-20T08:08:36;13.97;;;5.90;;
5493;SDS011;2769;49.864;8.656;2022-09-20T08:11:26;11.40;;;6.63;;
5493;SDS011;2769;49.864;8.656;2022-09-20T08:14:17;10.67;;;6.27;;
5493;SDS011;2769;49.864;8.656;2022-09-20T08:17:06;22.67;;;6.00;;
5493;SDS011;2769;49.864;8.656;2022-09-20T08:19:56;12.03;;;5.00;;
5493;SDS011;2769;49.864;8.656;2022-09-20T08:22:46;16.50;;;5.63;;
5493;SDS011;2769;49.864;8.656;2022-09-20T08:25:55;10.30;;;5.03;;
5493;SDS011;2769;49.864;8.656;2022-09-20T08:28:44;19.00;;;5.40;;
5493;SDS011;2769;49.864;8.656;2022-09-20T08:31:35;16.13;;;4.50;;
5493;SDS011;2769;49.864;8.656;2022-09-20T08:34:28;17.43;;;5.27;;
5493;SDS011;2769;49.864;8.656;2022-09-20T08:37:16;16.13;;;5.10;;
5493;SDS011;2769;49.864;8.656;2022-09-20T08:40:05;13.00;;;4.93;;
5493;SDS011;2769;49.864;8.656;2022-09-20T08:42:54;11.63;;;4.97;;
5493;SDS011;2769;49.864;8.656;2022-09-20T08:45:43;13.27;;;4.87;;
5493;SDS011;2769;49.864;8.656;2022-09-20T08:48:16;11.63;;;4.90;;
5493;SDS011;2769;49.864;8.656;2022-09-20T08:50:47;9.20;;;4.83;;
5493;SDS011;2769;49.864;8.656;2022-09-20T08:53:16;11.77;;;4.87;;
5493;SDS011;2769;49.864;8.656;2022-09-20T08:55:47;11.10;;;4.47;;
5493;SDS011;2769;49.864;8.656;2022-09-20T08:58:15;8.83;;;4.27;;
5493;SDS011;2769;49.864;8.656;2022-09-20T09:00:44;11.03;;;4.60;;
5493;SDS011;2769;49.864;8.656;2022-09-20T09:03:13;6.13;;;4.03;;
5493;SDS011;2769;49.864;8.656;2022-09-20T09:05:44;8.73;;;4.07;;
5493;SDS011;2769;49.864;8.656;2022-09-20T09:08:14;15.93;;;5.07;;
5493;SDS011;2769;49.864;8.656;2022-09-20T09:10:46;12.23;;;4.80;;
5493;SDS011;2769;49.864;8.656;2022-09-20T09:13:23;6.47;;;4.67;;
5493;SDS011;2769;49.864;8.656;2022-09-20T09:15:56;13.07;;;5.30;;
5493;SDS011;2769;49.864;8.656;2022-09-20T09:18:30;9.43;;;4.70;;
5493;SDS011;2769;49.864;8.656;2022-09-20T09:21:01;10.37;;;4.80;;
5493;SDS011;2769;49.864;8.656;2022-09-20T09:23:50;11.87;;;4.80;;
5493;SDS011;2769;49.864;8.656;2022-09-20T09:26:23;13.53;;;5.20;;
5493;SDS011;2769;49.864;8.656;2022-09-20T09:29:08;11.93;;;4.53;;
5493;SDS011;2769;49.864;8.656;2022-09-20T09:31:42;6.33;;;4.60;;
5493;SDS011;2769;49.864;8.656;2022-09-20T09:34:25;10.07;;;5.10;;
5493;SDS011;2769;49.864;8.656;2022-09-20T09:36:54;8.20;;;3.93;;
5493;SDS011;2769;49.864;8.656;2022-09-20T09:39:23;7.20;;;4.03;;
5493;SDS011;2769;49.864;8.656;2022-09-20T09:41:52;9.03;;;3.80;;
5493;SDS011;2769;49.864;8.656;2022-09-20T09:44:22;6.27;;;2.97;;
5493;SDS011;2769;49.864;8.656;2022-09-20T09:46:53;9.40;;;2.83;;
5493;SDS011;2769;49.864;8.656;2022-09-20T09:49:22;3.93;;;2.63;;
5493;SDS011;2769;49.864;8.656;2022-09-20T09:52:00;3.23;;;2.60;;
5493;SDS011;2769;49.864;8.656;2022-09-20T09:54:31;5.07;;;2.67;;
5493;SDS011;2769;49.864;8.656;2022-09-20T09:57:05;9.87;;;2.60;;
5493;SDS011;2769;49.864;8.656;2022-09-20T10:00:01;6.13;;;2.57;;
5493;SDS011;2769;49.864;8.656;2022-09-20T10:02:53;6.63;;;3.00;;
5493;SDS011;2769;49.864;8.656;2022-09-20T10:05:53;3.90;;;2.40;;
5493;SDS011;2769;49.864;8.656;2022-09-20T10:08:36;5.50;;;2.23;;
5493;SDS011;2769;49.864;8.656;2022-09-20T10:11:38;10.90;;;2.50;;
5493;SDS011;2769;49.864;8.656;2022-09-20T10:14:42;2.90;;;2.47;;
5493;SDS011;2769;49.864;8.656;2022-09-20T10:17:46;3.60;;;2.77;;
5493;SDS011;2769;49.864;8.656;2022-09-20T10:20:57;5.03;;;2.57;;
5493;SDS011;2769;49.864;8.656;2022-09-20T10:24:00;7.20;;;2.30;;
5493;SDS011;2769;49.864;8.656;2022-09-20T10:26:59;6.93;;;2.43;;
5493;SDS011;2769;49.864;8.656;2022-09-20T10:30:00;10.80;;;2.60;;
5493;SDS011;2769;49.864;8.656;2022-09-20T10:32:54;6.70;;;2.40;;
5493;SDS011;2769;49.864;8.656;2022-09-20T10:35:54;9.70;;;2.33;;
5493;SDS011;2769;49.864;8.656;2022-09-20T10:38:55;5.77;;;1.80;;
5493;SDS011;2769;49.864;8.656;2022-09-20T10:41:50;8.03;;;2.20;;
5493;SDS011;2769;49.864;8.656;2022-09-20T10:45:06;5.30;;;2.10;;
5493;SDS011;2769;49.864;8.656;2022-09-20T10:48:21;6.17;;;1.93;;
5493;SDS011;2769;49.864;8.656;2022-09-20T10:51:19;2.93;;;1.43;;
5493;SDS011;2769;49.864;8.656;2022-09-20T10:54:18;5.27;;;2.20;;
5493;SDS011;2769;49.864;8.656;2022-09-20T10:57:22;6.90;;;2.50;;
5493;SDS011;2769;49.864;8.656;2022-09-20T11:00:22;5.80;;;2.27;;
5493;SDS011;2769;49.864;8.656;2022-09-20T11:03:22;8.00;;;2.40;;
5493;SDS011;2769;49.864;8.656;2022-09-20T11:06:25;5.90;;;2.47;;
5493;SDS011;2769;49.864;8.656;2022-09-20T11:09:28;7.53;;;2.50;;
5493;SDS011;2769;49.864;8.656;2022-09-20T11:12:22;7.57;;;2.30;;
5493;SDS011;2769;49.864;8.656;2022-09-20T11:15:14;4.83;;;2.40;;
5493;SDS011;2769;49.864;8.656;2022-09-20T11:18:09;4.90;;;2.47;;
5493;SDS011;2769;49.864;8.656;2022-09-20T11:21:07;3.00;;;2.10;;
5493;SDS011;2769;49.864;8.656;2022-09-20T11:24:04;10.17;;;2.13;;
5493;SDS011;2769;49.864;8.656;2022-09-20T11:26:59;6.50;;;2.70;;
5493;SDS011;2769;49.864;8.656;2022-09-20T11:29:53;5.40;;;2.70;;
5493;SDS011;2769;49.864;8.656;2022-09-20T11:32:48;6.20;;;3.30;;
5493;SDS011;2769;49.864;8.656;2022-09-20T11:35:41;8.53;;;2.53;;
5493;SDS011;2769;49.864;8.656;2022-09-20T11:38:36;5.73;;;2.53;;
5493;SDS011;2769;49.864;8.656;2022-09-20T11:41:29;8.07;;;2.73;;
5493;SDS011;2769;49.864;8.656;2022-09-20T11:44:19;8.30;;;3.27;;
5493;SDS011;2769;49.864;8.656;2022-09-20T11:47:11;9.57;;;3.20;;
5493;SDS011;2769;49.864;8.656;2022-09-20T11:53:48;4.17;;;2.70;;
5493;SDS011;2769;49.864;8.656;2022-09-20T11:56:49;10.97;;;2.83;;
5493;SDS011;2769;49.864;8.656;2022-09-20T11:59:39;4.40;;;2.17;;
5493;SDS011;2769;49.864;8.656;2022-09-20T12:02:31;5.70;;;2.03;;
5493;SDS011;2769;49.864;8.656;2022-09-20T12:05:26;3.87;;;2.10;;
5493;SDS011;2769;49.864;8.656;2022-09-20T12:08:19;4.10;;;1.83;;
5493;SDS011;2769;49.864;8.656;2022-09-20T12:11:12;3.93;;;1.50;;
5493;SDS011;2769;49.864;8.656;2022-09-20T12:14:05;16.33;;;2.37;;
5493;SDS011;2769;49.864;8.656;2022-09-20T12:17:03;3.83;;;1.60;;
5493;SDS011;2769;49.864;8.656;2022-09-20T12:19:52;2.33;;;1.50;;
5493;SDS011;2769;49.864;8.656;2022-09-20T12:22:40;2.00;;;1.80;;
5493;SDS011;2769;49.864;8.656;2022-09-20T12:25:32;3.50;;;1.93;;
5493;SDS011;2769;49.864;8.656;2022-09-20T12:28:31;3.67;;;1.93;;
5493;SDS011;2769;49.864;8.656;2022-09-20T12:31:37;1.70;;;1.60;;
5493;SDS011;2769;49.864;8.656;2022-09-20T12:34:34;3.10;;;2.00;;
5493;SDS011;2769;49.864;8.656;2022-09-20T12:37:24;4.90;;;2.27;;
5493;SDS011;2769;49.864;8.656;2022-09-20T12:40:13;3.53;;;2.20;;
5493;SDS011;2769;49.864;8.656;2022-09-20T12:43:04;1.80;;;1.70;;
5493;SDS011;2769;49.864;8.656;2022-09-20T12:46:02;3.17;;;2.10;;
5493;SDS011;2769;49.864;8.656;2022-09-20T12:52:50;3.90;;;2.30;;
5493;SDS011;2769;49.864;8.656;2022-09-20T12:55:52;2.87;;;1.67;;
5493;SDS011;2769;49.864;8.656;2022-09-20T12:58:50;5.23;;;2.00;;
5493;SDS011;2769;49.864;8.656;2022-09-20T13:01:40;2.30;;;1.60;;
5493;SDS011;2769;49.864;8.656;2022-09-20T13:07:47;3.90;;;1.50;;
5493;SDS011;2769;49.864;8.656;2022-09-20T13:10:46;4.37;;;1.60;;
5493;SDS011;2769;49.864;8.656;2022-09-20T13:13:38;1.73;;;1.63;;
5493;SDS011;2769;49.864;8.656;2022-09-20T13:16:32;2.77;;;1.47;;
5493;SDS011;2769;49.864;8.656;2022-09-20T13:19:27;2.63;;;1.47;;
5493;SDS011;2769;49.864;8.656;2022-09-20T13:22:21;1.97;;;1.77;;
5493;SDS011;2769;49.864;8.656;2022-09-20T13:25:13;2.30;;;1.60;;
5493;SDS011;2769;49.864;8.656;2022-09-20T13:28:05;1.60;;;1.50;;
5493;SDS011;2769;49.864;8.656;2022-09-20T13:31:19;2.30;;;1.50;;
5493;SDS011;2769;49.864;8.656;2022-09-20T13:34:14;2.80;;;1.87;;
5493;SDS011;2769;49.864;8.656;2022-09-20T13:37:07;2.07;;;1.97;;
5493;SDS011;2769;49.864;8.656;2022-09-20T13:40:16;6.23;;;2.00;;
5493;SDS011;2769;49.864;8.656;2022-09-20T13:43:06;6.87;;;2.30;;
5493;SDS011;2769;49.864;8.656;2022-09-20T13:46:11;2.80;;;2.60;;
5493;SDS011;2769;49.864;8.656;2022-09-20T13:49:12;4.07;;;2.27;;
5493;SDS011;2769;49.864;8.656;2022-09-20T13:52:11;3.33;;;2.20;;
5493;SDS011;2769;49.864;8.656;2022-09-20T13:55:24;4.60;;;2.50;;
5493;SDS011;2769;49.864;8.656;2022-09-20T13:58:18;3.23;;;2.57;;
5493;SDS011;2769;49.864;8.656;2022-09-20T14:01:18;3.17;;;2.60;;
5493;SDS011;2769;49.864;8.656;2022-09-20T14:04:12;3.10;;;2.50;;
5493;SDS011;2769;49.864;8.656;2022-09-20T14:07:04;5.40;;;2.80;;
5493;SDS011;2769;49.864;8.656;2022-09-20T14:09:54;6.43;;;2.67;;
5493;SDS011;2769;49.864;8.656;2022-09-20T14:12:45;5.47;;;2.53;;
5493;SDS011;2769;49.864;8.656;2022-09-20T14:15:35;4.53;;;2.50;;
5493;SDS011;2769;49.864;8.656;2022-09-20T14:18:26;2.50;;;2.20;;
5493;SDS011;2769;49.864;8.656;2022-09-20T14:21:16;3.43;;;2.10;;
5493;SDS011;2769;49.864;8.656;2022-09-20T14:24:22;4.07;;;2.50;;
5493;SDS011;2769;49.864;8.656;2022-09-20T14:27:15;4.03;;;2.30;;
5493;SDS011;2769;49.864;8.656;2022-09-20T14:30:26;2.57;;;2.00;;
5493;SDS011;2769;49.864;8.656;2022-09-20T14:33:16;2.30;;;1.90;;
5493;SDS011;2769;49.864;8.656;2022-09-20T14:36:10;4.80;;;1.97;;
5493;SDS011;2769;49.864;8.656;2022-09-20T14:39:02;6.53;;;2.70;;
5493;SDS011;2769;49.864;8.656;2022-09-20T14:41:51;2.23;;;2.07;;
5493;SDS011;2769;49.864;8.656;2022-09-20T14:44:41;3.90;;;2.20;;
5493;SDS011;2769;49.864;8.656;2022-09-20T14:47:36;5.33;;;1.87;;
5493;SDS011;2769;49.864;8.656;2022-09-20T14:50:26;7.33;;;2.47;;
5493;SDS011;2769;49.864;8.656;2022-09-20T14:53:19;3.47;;;2.70;;
5493;SDS011;2769;49.864;8.656;2022-09-20T14:56:24;4.70;;;2.27;;
5493;SDS011;2769;49.864;8.656;2022-09-20T14:59:20;5.37;;;2.90;;
5493;SDS011;2769;49.864;8.656;2022-09-20T15:02:12;3.77;;;1.93;;
5493;SDS011;2769;49.864;8.656;2022-09-20T15:05:03;5.93;;;2.20;;
5493;SDS011;2769;49.864;8.656;2022-09-20T15:07:52;2.63;;;2.13;;
5493;SDS011;2769;49.864;8.656;2022-09-20T15:10:43;5.47;;;2.40;;
5493;SDS011;2769;49.864;8.656;2022-09-20T15:13:31;4.73;;;2.03;;
5493;SDS011;2769;49.864;8.656;2022-09-20T15:16:21;6.30;;;2.60;;
5493;SDS011;2769;49.864;8.656;2022-09-20T15:19:09;5.37;;;2.40;;
5493;SDS011;2769;49.864;8.656;2022-09-20T15:21:59;2.30;;;2.10;;
5493;SDS011;2769;49.864;8.656;2022-09-20T15:24:48;6.87;;;2.50;;
5493;SDS011;2769;49.864;8.656;2022-09-20T15:27:36;6.37;;;2.47;;
5493;SDS011;2769;49.864;8.656;2022-09-20T15:30:24;3.23;;;2.10;;
5493;SDS011;2769;49.864;8.656;2022-09-20T15:33:13;5.80;;;2.20;;
5493;SDS011;2769;49.864;8.656;2022-09-20T15:36:02;2.23;;;2.00;;
5493;SDS011;2769;49.864;8.656;2022-09-20T15:38:53;2.70;;;1.80;;
5493;SDS011;2769;49.864;8.656;2022-09-20T15:41:42;1.77;;;1.50;;
5493;SDS011;2769;49.864;8.656;2022-09-20T15:44:30;4.20;;;1.97;;
5493;SDS011;2769;49.864;8.656;2022-09-20T15:47:19;3.40;;;1.60;;
5493;SDS011;2769;49.864;8.656;2022-09-20T15:50:08;2.60;;;1.40;;
5493;SDS011;2769;49.864;8.656;2022-09-20T15:52:57;2.20;;;1.20;;
5493;SDS011;2769;49.864;8.656;2022-09-20T15:55:47;1.70;;;1.60;;
5493;SDS011;2769;49.864;8.656;2022-09-20T15:58:36;1.80;;;1.27;;
5493;SDS011;2769;49.864;8.656;2022-09-20T16:01:24;1.40;;;1.30;;
5493;SDS011;2769;49.864;8.656;2022-09-20T16:04:14;2.60;;;1.20;;
5493;SDS011;2769;49.864;8.656;2022-09-20T16:07:05;1.63;;;1.23;;
5493;SDS011;2769;49.864;8.656;2022-09-20T16:09:55;3.07;;;1.03;;
5493;SDS011;2769;49.864;8.656;2022-09-20T16:12:45;4.17;;;1.33;;
5493;SDS011;2769;49.864;8.656;2022-09-20T16:15:33;1.80;;;1.10;;
5493;SDS011;2769;49.864;8.656;2022-09-20T16:18:24;1.10;;;1.00;;
5493;SDS011;2769;49.864;8.656;2022-09-20T16:21:30;3.00;;;1.10;;
5493;SDS011;2769;49.864;8.656;2022-09-20T16:24:18;3.33;;;1.47;;
5493;SDS011;2769;49.864;8.656;2022-09-20T16:27:09;2.77;;;1.20;;
5493;SDS011;2769;49.864;8.656;2022-09-20T16:29:59;1.00;;;1.00;;
5493;SDS011;2769;49.864;8.656;2022-09-20T16:32:48;2.17;;;1.30;;
5493;SDS011;2769;49.864;8.656;2022-09-20T16:35:37;1.63;;;1.53;;
5493;SDS011;2769;49.864;8.656;2022-09-20T16:38:25;1.00;;;0.90;;
5493;SDS011;2769;49.864;8.656;2022-09-20T16:41:14;1.90;;;1.20;;
5493;SDS011;2769;49.864;8.656;2022-09-20T16:44:02;1.17;;;1.10;;
5493;SDS011;2769;49.864;8.656;2022-09-20T16:46:52;1.27;;;1.17;;
5493;SDS011;2769;49.864;8.656;2022-09-20T16:49:40;2.10;;;1.30;;
5493;SDS011;2769;49.864;8.656;2022-09-20T16:52:28;1.63;;;1.00;;
5493;SDS011;2769;49.864;8.656;2022-09-20T16:55:17;1.53;;;1.43;;
5493;SDS011;2769;49.864;8.656;2022-09-20T16:58:06;3.00;;;1.20;;
5493;SDS011;2769;49.864;8.656;2022-09-20T17:01:00;1.53;;;1.20;;
5493;SDS011;2769;49.864;8.656;2022-09-20T17:03:51;4.00;;;2.53;;
5493;SDS011;2769;49.864;8.656;2022-09-20T17:06:40;2.00;;;1.90;;
5493;SDS011;2769;49.864;8.656;2022-09-20T17:09:29;4.83;;;4.07;;
5493;SDS011;2769;49.864;8.656;2022-09-20T17:12:18;2.30;;;2.20;;
5493;SDS011;2769;49.864;8.656;2022-09-20T17:15:09;3.90;;;2.17;;
5493;SDS011;2769;49.864;8.656;2022-09-20T17:17:58;7.20;;;4.17;;
5493;SDS011;2769;49.864;8.656;2022-09-20T17:20:52;5.90;;;3.37;;
5493;SDS011;2769;49.864;8.656;2022-09-20T17:23:40;3.00;;;1.67;;
5493;SDS011;2769;49.864;8.656;2022-09-20T17:26:36;5.20;;;2.60;;
5493;SDS011;2769;49.864;8.656;2022-09-20T17:29:26;5.17;;;2.50;;
5493;SDS011;2769;49.864;8.656;2022-09-20T17:32:14;3.63;;;2.50;;
5493;SDS011;2769;49.864;8.656;2022-09-20T17:35:05;5.03;;;3.33;;
5493;SDS011;2769;49.864;8.656;2022-09-20T17:37:55;6.73;;;2.70;;
5493;SDS011;2769;49.864;8.656;2022-09-20T17:40:43;4.17;;;1.93;;
5493;SDS011;2769;49.864;8.656;2022-09-20T17:43:31;3.63;;;2.10;;
5493;SDS011;2769;49.864;8.656;2022-09-20T17:46:21;8.00;;;2.20;;
5493;SDS011;2769;49.864;8.656;2022-09-20T17:49:12;2.33;;;1.87;;
5493;SDS011;2769;49.864;8.656;2022-09-20T17:52:01;3.23;;;2.30;;
5493;SDS011;2769;49.864;8.656;2022-09-20T17:54:54;2.13;;;1.93;;
5493;SDS011;2769;49.864;8.656;2022-09-20T17:57:43;3.57;;;1.70;;
5493;SDS011;2769;49.864;8.656;2022-09-20T18:00:31;2.67;;;1.60;;
5493;SDS011;2769;49.864;8.656;2022-09-20T18:03:20;1.77;;;1.67;;
5493;SDS011;2769;49.864;8.656;2022-09-20T18:06:12;3.20;;;1.93;;
5493;SDS011;2769;49.864;8.656;2022-09-20T18:09:02;1.67;;;1.53;;
5493;SDS011;2769;49.864;8.656;2022-09-20T18:11:53;2.47;;;1.77;;
5493;SDS011;2769;49.864;8.656;2022-09-20T18:14:42;2.20;;;2.00;;
5493;SDS011;2769;49.864;8.656;2022-09-20T18:17:31;2.33;;;1.70;;
5493;SDS011;2769;49.864;8.656;2022-09-20T18:20:20;2.63;;;1.80;;
5493;SDS011;2769;49.864;8.656;2022-09-20T18:23:08;3.63;;;2.00;;
5493;SDS011;2769;49.864;8.656;2022-09-20T18:25:56;2.20;;;2.00;;
5493;SDS011;2769;49.864;8.656;2022-09-20T18:29:04;4.43;;;2.03;;